Time;durP1;ratioP1;P1;durP2;ratioP2;P2;SDS_P1;SDS_P2;PMS_P1;PMS_P2;Temp;Humidity;BMP_temperature;BMP_pressure;BME280_temperature;BME280_humidity;BME280_pressure;Samples;Min_cycle;Max_cycle;Signal;HPM_P1;HPM_P2
2022/11/26 00:00:13;;;;;;;17.48;8.40;;;;;;;6.78;85.63;100498.03;343608;28;1190;-67
2022/11/26 00:00:25;;;;;;;16.35;7.50;;;;;;;6.78;85.54;100495.47;343663;28;1051;-68
2022/11/26 00:00:38;;;;;;;17.65;7.93;;;;;;;6.76;85.87;100497.19;343618;28;1074;-67
2022/11/26 00:00:51;;;;;;;21.13;11.73;;;;;;;6.74;85.42;100501.50;343367;28;1803;-68
2022/11/26 00:01:13;;;;;;;24.80;13.82;;;;;;;6.71;85.57;100498.91;343504;28;1102;-70
2022/11/26 00:01:26;;;;;;;20.05;10.25;;;;;;;6.71;85.54;100498.06;343626;28;1294;-70
2022/11/26 00:01:39;;;;;;;19.27;9.65;;;;;;;6.73;85.54;100498.91;343386;28;1386;-69
2022/11/26 00:01:51;;;;;;;18.38;9.00;;;;;;;6.74;85.95;100498.91;343532;28;1665;-68
2022/11/26 00:02:16;;;;;;;15.25;8.98;;;;;;;6.77;85.82;100498.03;343753;28;1018;-68
2022/11/26 00:02:30;;;;;;;17.92;10.32;;;;;;;6.79;85.48;100499.75;343030;28;1056;-68
2022/11/26 00:02:42;;;;;;;18.70;9.30;;;;;;;6.80;85.60;100498.91;343649;28;1015;-67
2022/11/26 00:02:55;;;;;;;18.52;8.45;;;;;;;6.83;85.51;100502.34;343647;28;1236;-69
2022/11/26 00:03:09;;;;;;;16.27;8.43;;;;;;;6.81;85.16;100499.75;344942;28;985;-70
2022/11/26 00:03:21;;;;;;;14.43;8.38;;;;;;;6.84;84.96;100498.88;344669;28;1288;-70
2022/11/26 00:03:33;;;;;;;13.70;8.32;;;;;;;6.84;84.98;100504.03;344873;28;1068;-70
2022/11/26 00:03:46;;;;;;;15.30;8.30;;;;;;;6.85;84.92;100508.34;345087;28;1053;-70
2022/11/26 00:04:01;;;;;;;15.35;8.82;;;;;;;6.85;84.82;100510.94;343527;28;1081;-68
2022/11/26 00:04:13;;;;;;;13.30;8.25;;;;;;;6.85;84.46;100505.78;343834;28;1062;-68
2022/11/26 00:04:25;;;;;;;12.70;7.47;;;;;;;6.85;84.59;100501.47;343363;28;1063;-68
2022/11/26 00:04:37;;;;;;;12.88;7.40;;;;;;;6.87;84.68;100498.88;343428;28;1214;-67
2022/11/26 00:04:51;;;;;;;13.10;7.40;;;;;;;6.88;84.52;100505.75;343456;28;1059;-67
2022/11/26 00:05:04;;;;;;;12.00;6.93;;;;;;;6.88;84.32;100506.63;343671;28;1748;-69
2022/11/26 00:05:16;;;;;;;12.18;6.40;;;;;;;6.88;84.26;100511.78;343653;28;1120;-70
2022/11/26 00:05:30;;;;;;;12.00;6.43;;;;;;;6.88;84.12;100503.16;343544;28;1234;-70
2022/11/26 00:05:45;;;;;;;13.63;6.78;;;;;;;6.89;84.06;100507.47;343501;28;1329;-70
2022/11/26 00:05:57;;;;;;;15.32;6.88;;;;;;;6.88;83.73;100510.91;343356;28;1511;-70
2022/11/26 00:06:26;;;;;;;16.23;6.93;;;;;;;6.87;84.10;100509.22;344996;28;1860;-70
2022/11/26 00:06:41;;;;;;;13.07;7.03;;;;;;;6.86;84.12;100507.47;343389;28;1693;-70
2022/11/26 00:06:53;;;;;;;12.93;7.22;;;;;;;6.86;84.10;100512.66;342577;28;1062;-70
2022/11/26 00:07:09;;;;;;;12.50;7.22;;;;;;;6.85;83.48;100510.94;342229;28;1012;-70
2022/11/26 00:07:25;;;;;;;12.35;6.80;;;;;;;6.86;83.53;100507.47;342874;28;1725;-70
2022/11/26 00:07:38;;;;;;;12.60;6.43;;;;;;;6.86;83.56;100507.47;342475;28;1228;-70
2022/11/26 00:07:54;;;;;;;12.10;6.55;;;;;;;6.85;83.65;100501.47;342144;28;1263;-69
2022/11/26 00:08:18;;;;;;;13.60;7.28;;;;;;;6.83;83.74;100502.34;342100;28;1055;-70
2022/11/26 00:08:33;;;;;;;14.20;7.03;;;;;;;6.83;83.57;100513.53;342335;28;1101;-68
2022/11/26 00:08:45;;;;;;;14.18;6.97;;;;;;;6.83;83.48;100510.09;342174;28;1060;-67
2022/11/26 00:08:58;;;;;;;14.48;7.18;;;;;;;6.83;84.01;100504.91;342539;28;924;-67
2022/11/26 00:09:17;;;;;;;12.55;6.80;;;;;;;6.85;83.46;100505.78;342121;28;1252;-68
2022/11/26 00:09:29;;;;;;;12.18;6.50;;;;;;;6.86;83.36;100507.47;343194;28;1165;-70
2022/11/26 00:09:41;;;;;;;14.65;6.85;;;;;;;6.87;83.89;100510.06;344443;28;1327;-70
2022/11/26 00:09:55;;;;;;;13.05;6.57;;;;;;;6.87;83.57;100504.03;345397;28;895;-70
2022/11/26 00:10:17;;;;;;;10.60;6.30;;;;;;;6.87;83.42;100506.63;344973;28;1946;-70
2022/11/26 00:10:34;;;;;;;11.60;6.43;;;;;;;6.88;83.66;100514.38;344996;28;1035;-68
2022/11/26 00:10:49;;;;;;;12.10;6.63;;;;;;;6.88;83.51;100504.03;344771;28;1172;-67
2022/11/26 00:11:02;;;;;;;13.05;6.72;;;;;;;6.87;83.40;100509.22;343430;28;1606;-67
2022/11/26 00:11:15;;;;;;;14.50;7.05;;;;;;;6.86;83.33;100507.47;342110;28;1129;-67
2022/11/26 00:11:27;;;;;;;15.65;7.18;;;;;;;6.87;83.27;100511.78;341060;29;1203;-69
2022/11/26 00:11:39;;;;;;;15.13;7.30;;;;;;;6.86;82.96;100503.19;341158;29;1302;-70
2022/11/26 00:11:51;;;;;;;14.55;7.57;;;;;;;6.87;83.17;100509.22;340629;28;1750;-70
2022/11/26 00:12:20;;;;;;;13.75;7.47;;;;;;;6.90;82.99;100514.34;340302;29;1716;-70
2022/11/26 00:12:33;;;;;;;11.20;6.32;;;;;;;6.91;82.92;100521.25;339554;29;1023;-71
2022/11/26 00:12:46;;;;;;;10.05;6.05;;;;;;;6.91;83.18;100516.09;340711;29;1084;-68
2022/11/26 00:12:58;;;;;;;10.55;5.95;;;;;;;6.92;83.07;100517.78;340981;29;2239;-70
2022/11/26 00:13:16;;;;;;;10.93;6.07;;;;;;;6.94;82.89;100516.06;342340;28;1336;-70
2022/11/26 00:13:30;;;;;;;10.63;6.10;;;;;;;6.94;82.57;100510.88;341407;28;1088;-70
2022/11/26 00:13:42;;;;;;;9.85;6.20;;;;;;;6.94;82.97;100522.09;342342;28;1285;-70
2022/11/26 00:13:54;;;;;;;9.73;6.30;;;;;;;6.95;82.50;100517.78;342331;28;1230;-70
2022/11/26 00:14:15;;;;;;;10.90;6.57;;;;;;;6.97;82.50;100518.66;343008;28;1306;-70
2022/11/26 00:14:27;;;;;;;14.68;7.28;;;;;;;6.95;82.62;100522.97;343586;28;1256;-68
2022/11/26 00:14:39;;;;;;;17.13;7.75;;;;;;;6.95;82.43;100522.97;344007;28;744;-68
2022/11/26 00:14:52;;;;;;;16.25;7.78;;;;;;;6.91;82.18;100523.84;343714;28;1072;-67
2022/11/26 00:15:30;;;;;;;18.30;7.72;;;;;;;6.87;82.58;100527.31;343524;28;1329;-67
2022/11/26 00:15:42;;;;;;;14.05;6.93;;;;;;;6.88;82.62;100526.41;340979;28;1033;-69
2022/11/26 00:15:55;;;;;;;15.55;7.38;;;;;;;6.86;82.68;100528.16;344300;28;1578;-70
2022/11/26 00:16:13;;;;;;;15.85;7.60;;;;;;;6.86;82.27;100528.16;343507;28;1593;-70
2022/11/26 00:16:26;;;;;;;14.02;7.32;;;;;;;6.85;82.50;100529.03;345502;28;1250;-70
2022/11/26 00:16:38;;;;;;;14.32;7.43;;;;;;;6.82;82.58;100535.03;345058;28;1027;-70
2022/11/26 00:16:51;;;;;;;15.18;7.53;;;;;;;6.80;82.64;100532.50;344266;28;1470;-68
2022/11/26 00:17:03;;;;;;;16.05;7.35;;;;;;;6.79;82.29;100535.91;345238;28;1090;-68
2022/11/26 00:17:19;;;;;;;18.63;7.47;;;;;;;6.81;82.75;100530.75;345104;28;1115;-68
2022/11/26 00:17:31;;;;;;;16.20;7.78;;;;;;;6.80;82.25;100524.75;344809;28;1246;-67
2022/11/26 00:17:43;;;;;;;15.70;7.75;;;;;;;6.75;82.87;100529.03;345136;28;1050;-68
2022/11/26 00:17:56;;;;;;;16.73;8.07;;;;;;;6.77;83.00;100529.91;345041;28;1090;-70
2022/11/26 00:18:08;;;;;;;15.80;8.00;;;;;;;6.74;82.33;100535.09;344961;28;1186;-70
2022/11/26 00:18:22;;;;;;;15.27;7.85;;;;;;;6.74;82.73;100532.50;344993;28;1218;-70
2022/11/26 00:18:34;;;;;;;16.48;7.85;;;;;;;6.74;82.44;100529.94;344752;28;1395;-70
2022/11/26 00:18:46;;;;;;;18.15;7.78;;;;;;;6.73;82.40;100528.19;344606;28;1134;-70
2022/11/26 00:18:58;;;;;;;18.25;7.70;;;;;;;6.75;82.93;100531.63;343572;28;1221;-70
2022/11/26 00:19:10;;;;;;;17.13;7.70;;;;;;;6.77;82.85;100534.22;343290;28;1235;-70
2022/11/26 00:19:22;;;;;;;15.32;7.63;;;;;;;6.74;82.43;100537.69;343728;28;1298;-70
2022/11/26 00:19:34;;;;;;;15.85;8.20;;;;;;;6.73;82.77;100538.53;343528;28;1080;-70
2022/11/26 00:19:46;;;;;;;15.18;8.35;;;;;;;6.74;82.63;100534.22;343383;28;1359;-70
2022/11/26 00:19:58;;;;;;;15.05;8.52;;;;;;;6.75;83.03;100531.63;342394;28;1116;-70
2022/11/26 00:20:11;;;;;;;17.10;8.80;;;;;;;6.73;82.81;100533.34;341673;28;1971;-70
2022/11/26 00:20:29;;;;;;;17.20;8.50;;;;;;;6.70;82.62;100533.38;341494;28;1871;-67
2022/11/26 00:20:42;;;;;;;17.92;8.48;;;;;;;6.71;82.90;100540.25;341994;28;1067;-67
2022/11/26 00:20:58;;;;;;;18.13;8.70;;;;;;;6.75;82.78;100536.78;342589;28;756;-67
2022/11/26 00:21:25;;;;;;;17.17;8.38;;;;;;;6.76;82.69;100535.94;343720;28;1718;-67
2022/11/26 00:21:39;;;;;;;17.13;8.00;;;;;;;6.78;82.75;100541.97;342137;28;994;-68
2022/11/26 00:21:51;;;;;;;18.05;8.63;;;;;;;6.74;82.43;100537.69;343326;28;1784;-70
2022/11/26 00:22:04;;;;;;;19.45;9.20;;;;;;;6.75;82.86;100533.34;343044;28;1780;-70
2022/11/26 00:22:28;;;;;;;19.38;9.30;;;;;;;6.78;82.85;100539.38;343519;28;1461;-70
2022/11/26 00:22:52;;;;;;;15.88;8.52;;;;;;;6.83;82.49;100536.78;343589;28;1364;-70
2022/11/26 00:23:05;;;;;;;15.15;7.40;;;;;;;6.85;82.26;100536.78;343584;28;1035;-67
2022/11/26 00:23:23;;;;;;;19.48;8.18;;;;;;;6.87;82.20;100537.63;343976;28;1792;-67
2022/11/26 00:23:35;;;;;;;18.08;8.60;;;;;;;6.88;82.16;100531.59;344659;28;1267;-67
2022/11/26 00:23:47;;;;;;;15.45;7.95;;;;;;;6.89;82.14;100541.06;344902;28;1018;-69
2022/11/26 00:24:01;;;;;;;15.35;7.57;;;;;;;6.91;81.92;100536.75;345233;28;1110;-70
2022/11/26 00:24:26;;;;;;;15.77;7.50;;;;;;;6.94;82.17;100534.16;345048;28;1056;-70
2022/11/26 00:24:38;;;;;;;13.82;6.90;;;;;;;6.95;82.12;100538.47;344103;28;1819;-70
2022/11/26 00:24:52;;;;;;;15.05;7.40;;;;;;;6.97;82.03;100531.56;345494;28;1658;-70
2022/11/26 00:25:04;;;;;;;15.95;7.55;;;;;;;6.98;82.05;100533.28;346693;28;758;-68
2022/11/26 00:25:21;;;;;;;14.63;7.65;;;;;;;7.00;82.14;100536.72;346014;28;1790;-67
2022/11/26 00:25:36;;;;;;;17.15;8.25;;;;;;;7.00;82.26;100539.28;345146;28;1596;-67
2022/11/26 00:25:51;;;;;;;20.63;8.30;;;;;;;7.01;81.98;100538.44;344976;28;1665;-67
2022/11/26 00:26:12;;;;;;;20.20;8.48;;;;;;;6.99;82.15;100537.59;344524;28;2180;-69
2022/11/26 00:26:24;;;;;;;16.92;8.52;;;;;;;7.00;81.66;100542.75;345908;28;1814;-70
2022/11/26 00:26:36;;;;;;;18.98;8.23;;;;;;;7.01;81.78;100538.44;344935;28;1441;-70
2022/11/26 00:26:48;;;;;;;17.90;8.07;;;;;;;7.03;81.78;100536.72;343901;28;1667;-70
2022/11/26 00:27:00;;;;;;;16.17;8.32;;;;;;;7.04;81.73;100538.41;343400;28;1161;-68
2022/11/26 00:27:12;;;;;;;16.17;7.80;;;;;;;7.06;81.97;100541.00;343418;28;1083;-67
2022/11/26 00:27:26;;;;;;;15.07;6.88;;;;;;;7.06;82.04;100534.09;343350;28;1180;-67
2022/11/26 00:27:38;;;;;;;13.90;6.65;;;;;;;7.08;82.13;100542.72;343457;28;1231;-68
2022/11/26 00:27:53;;;;;;;11.48;6.20;;;;;;;7.10;81.76;100541.00;343544;28;1030;-67
2022/11/26 00:28:24;;;;;;;10.38;5.90;;;;;;;7.14;81.78;100540.13;343398;28;899;-69
2022/11/26 00:28:37;;;;;;;10.88;6.10;;;;;;;7.15;81.50;100539.25;342795;28;1807;-70
2022/11/26 00:28:58;;;;;;;11.45;6.18;;;;;;;7.15;81.79;100544.41;343910;28;1205;-69
2022/11/26 00:29:11;;;;;;;14.50;7.00;;;;;;;7.15;81.42;100541.84;345003;28;1099;-68
2022/11/26 00:29:22;;;;;;;14.85;7.35;;;;;;;7.16;81.81;100548.75;344998;28;1546;-68
2022/11/26 00:29:34;;;;;;;13.65;7.47;;;;;;;7.14;81.36;100545.28;344750;28;1161;-68
2022/11/26 00:29:46;;;;;;;14.23;7.78;;;;;;;7.14;81.64;100547.88;345242;28;1213;-67
2022/11/26 00:29:58;;;;;;;13.30;7.68;;;;;;;7.14;81.35;100540.13;344729;28;1024;-68
2022/11/26 00:30:18;;;;;;;14.63;7.85;;;;;;;7.12;81.61;100544.44;343628;28;1205;-68
2022/11/26 00:30:30;;;;;;;19.77;8.25;;;;;;;7.13;81.39;100538.38;341006;29;1203;-68
2022/11/26 00:30:42;;;;;;;19.42;8.30;;;;;;;7.15;81.34;100536.66;341106;29;1696;-68
2022/11/26 00:30:56;;;;;;;16.90;7.70;;;;;;;7.16;81.32;100537.50;340727;29;1107;-68
2022/11/26 00:31:14;;;;;;;18.30;8.07;;;;;;;7.16;81.30;100548.75;339362;29;1073;-68
2022/11/26 00:31:27;;;;;;;18.48;8.15;;;;;;;7.18;81.44;100536.66;342321;28;1027;-68
2022/11/26 00:31:39;;;;;;;15.07;7.50;;;;;;;7.18;81.19;100552.19;342565;28;1943;-68
2022/11/26 00:31:51;;;;;;;15.38;7.75;;;;;;;7.17;81.41;100547.84;342046;28;1243;-68
2022/11/26 00:32:14;;;;;;;17.13;8.18;;;;;;;7.19;81.25;100550.44;339904;29;1240;-68
2022/11/26 00:32:26;;;;;;;15.35;7.72;;;;;;;7.23;81.75;100546.13;341055;29;869;-68
2022/11/26 00:32:38;;;;;;;14.10;7.68;;;;;;;7.25;81.37;100544.38;342219;28;1063;-68
2022/11/26 00:32:52;;;;;;;12.93;7.05;;;;;;;7.28;81.30;100541.78;342561;28;1024;-68
2022/11/26 00:33:04;;;;;;;11.75;6.53;;;;;;;7.30;81.69;100550.38;342558;28;1135;-68
2022/11/26 00:33:16;;;;;;;11.75;6.43;;;;;;;7.31;81.39;100552.13;343562;28;1432;-68
2022/11/26 00:33:29;;;;;;;13.43;7.13;;;;;;;7.30;81.60;100540.88;343627;28;1216;-68
2022/11/26 00:33:41;;;;;;;14.65;7.68;;;;;;;7.34;81.22;100546.91;344893;28;1044;-68
2022/11/26 00:33:53;;;;;;;14.38;7.57;;;;;;;7.34;81.34;100546.91;344814;28;1047;-68
2022/11/26 00:34:05;;;;;;;11.40;6.97;;;;;;;7.36;81.44;100550.34;344313;28;1664;-68
2022/11/26 00:34:17;;;;;;;12.15;7.25;;;;;;;7.36;81.36;100550.34;343842;28;1181;-68
2022/11/26 00:34:29;;;;;;;13.25;7.40;;;;;;;7.38;81.22;100548.63;344660;28;1067;-68
2022/11/26 00:34:41;;;;;;;13.07;7.43;;;;;;;7.40;81.63;100544.28;344997;28;1223;-68
2022/11/26 00:34:53;;;;;;;13.25;7.53;;;;;;;7.38;81.07;100548.63;344736;28;1610;-68
2022/11/26 00:35:05;;;;;;;13.48;7.55;;;;;;;7.37;81.64;100547.75;344893;28;1102;-68
2022/11/26 00:35:18;;;;;;;14.85;7.75;;;;;;;7.35;81.61;100549.50;344801;28;1388;-68
2022/11/26 00:35:30;;;;;;;14.68;7.97;;;;;;;7.34;81.79;100546.91;344673;28;1055;-69
2022/11/26 00:35:45;;;;;;;13.77;7.47;;;;;;;7.35;81.74;100546.06;344546;28;1140;-68
2022/11/26 00:36:02;;;;;;;14.75;7.78;;;;;;;7.38;82.08;100551.19;343883;28;983;-68
2022/11/26 00:36:17;;;;;;;15.77;8.25;;;;;;;7.40;81.62;100547.75;341913;28;2040;-68
2022/11/26 00:36:31;;;;;;;14.38;7.97;;;;;;;7.42;81.76;100547.72;343998;28;1127;-68
2022/11/26 00:36:43;;;;;;;13.82;8.02;;;;;;;7.42;81.82;100546.88;344110;28;1238;-68
2022/11/26 00:36:55;;;;;;;14.73;8.20;;;;;;;7.45;82.04;100555.50;343168;28;1554;-68
2022/11/26 00:37:41;;;;;;;14.60;7.88;;;;;;;7.46;81.91;100552.00;342245;28;1092;-68
2022/11/26 00:37:56;;;;;;;15.38;8.35;;;;;;;7.47;81.69;100553.75;339294;28;1305;-68
2022/11/26 00:38:14;;;;;;;15.70;8.38;;;;;;;7.38;81.59;100548.63;343328;28;1086;-68
2022/11/26 00:38:27;;;;;;;13.77;8.05;;;;;;;7.37;81.96;100552.09;343422;28;1338;-70
2022/11/26 00:38:39;;;;;;;13.85;7.75;;;;;;;7.38;81.84;100546.03;343497;28;1040;-70
2022/11/26 00:38:59;;;;;;;14.55;8.43;;;;;;;7.41;82.10;100551.19;342925;28;1031;-70
2022/11/26 00:39:22;;;;;;;15.45;8.93;;;;;;;7.47;82.14;100553.75;344272;28;1617;-68
2022/11/26 00:39:35;;;;;;;15.57;8.73;;;;;;;7.49;81.83;100551.16;344199;28;1653;-68
2022/11/26 00:39:48;;;;;;;15.85;8.38;;;;;;;7.51;81.67;100550.28;342952;28;2455;-68
2022/11/26 00:40:01;;;;;;;13.50;8.05;;;;;;;7.51;81.80;100552.00;342663;28;1776;-68
2022/11/26 00:40:26;;;;;;;17.00;8.60;;;;;;;7.53;81.60;100548.53;342284;28;1028;-68
2022/11/26 00:40:39;;;;;;;15.48;9.32;;;;;;;7.56;81.68;100558.84;341363;28;1685;-70
2022/11/26 00:40:51;;;;;;;15.88;9.68;;;;;;;7.57;81.74;100555.41;343260;28;2164;-70
2022/11/26 00:41:04;;;;;;;16.98;9.43;;;;;;;7.57;81.85;100552.81;341962;28;1043;-68
2022/11/26 00:41:21;;;;;;;18.13;9.13;;;;;;;7.60;81.89;100557.97;341102;29;1293;-68
2022/11/26 00:41:37;;;;;;;17.77;8.60;;;;;;;7.63;81.55;100558.84;341005;29;905;-68
2022/11/26 00:41:51;;;;;;;15.57;8.02;;;;;;;7.64;81.41;100553.63;341168;29;1176;-68
2022/11/26 00:42:03;;;;;;;13.40;7.43;;;;;;;7.67;81.43;100560.56;342000;28;1768;-68
2022/11/26 00:42:15;;;;;;;13.68;7.57;;;;;;;7.69;81.53;100553.63;343585;28;1264;-68
2022/11/26 00:42:27;;;;;;;13.13;7.63;;;;;;;7.70;81.10;100550.16;342647;28;760;-68
2022/11/26 00:42:39;;;;;;;11.93;7.40;;;;;;;7.71;81.45;100557.06;341976;28;1106;-68
2022/11/26 00:42:53;;;;;;;12.25;7.80;;;;;;;7.73;81.32;100555.34;341215;29;800;-68
2022/11/26 00:43:13;;;;;;;13.02;7.65;;;;;;;7.74;81.26;100557.88;340968;29;1865;-68
2022/11/26 00:43:26;;;;;;;14.88;7.95;;;;;;;7.75;81.24;100561.34;342642;28;799;-68
2022/11/26 00:43:38;;;;;;;15.52;8.57;;;;;;;7.75;81.14;100563.94;342416;28;1089;-68
2022/11/26 00:43:50;;;;;;;14.82;8.82;;;;;;;7.76;81.12;100560.47;342506;28;921;-68
2022/11/26 00:44:02;;;;;;;13.57;8.52;;;;;;;7.76;81.09;100552.72;342264;28;1604;-68
2022/11/26 00:44:23;;;;;;;14.65;8.48;;;;;;;7.78;80.77;100556.16;342603;28;1709;-68
2022/11/26 00:44:35;;;;;;;15.82;7.93;;;;;;;7.78;81.17;100553.56;342157;28;1256;-69
2022/11/26 00:44:47;;;;;;;15.52;8.15;;;;;;;7.74;80.93;100554.44;343547;28;1192;-70
2022/11/26 00:44:59;;;;;;;17.90;8.70;;;;;;;7.73;80.93;100560.50;344890;28;1038;-68
2022/11/26 00:45:17;;;;;;;19.08;8.63;;;;;;;7.75;81.06;100548.41;344109;28;1751;-68
2022/11/26 00:45:30;;;;;;;15.75;7.85;;;;;;;7.74;80.83;100554.44;345024;28;1077;-69
2022/11/26 00:45:42;;;;;;;15.48;8.05;;;;;;;7.74;80.89;100557.88;344956;28;1229;-68
2022/11/26 00:45:54;;;;;;;19.33;8.93;;;;;;;7.75;81.27;100554.44;345649;28;1904;-68
2022/11/26 00:46:11;;;;;;;20.65;10.02;;;;;;;7.76;81.13;100550.13;346714;28;735;-68
2022/11/26 00:46:24;;;;;;;21.52;10.35;;;;;;;7.78;81.03;100553.56;345166;28;1274;-68
2022/11/26 00:46:36;;;;;;;19.58;9.35;;;;;;;7.79;81.38;100550.13;344943;28;1207;-68
2022/11/26 00:46:49;;;;;;;18.73;8.75;;;;;;;7.77;81.07;100559.63;345054;28;720;-68
2022/11/26 00:47:01;;;;;;;16.50;8.30;;;;;;;7.76;81.38;100552.72;343514;28;1256;-68
2022/11/26 00:47:13;;;;;;;16.70;8.23;;;;;;;7.76;81.03;100552.72;342613;28;1684;-68
2022/11/26 00:47:25;;;;;;;17.77;8.45;;;;;;;7.75;81.41;100553.59;342271;28;1353;-68
2022/11/26 00:47:37;;;;;;;17.65;8.80;;;;;;;7.77;81.50;100559.63;342471;28;964;-68
2022/11/26 00:47:50;;;;;;;16.55;9.02;;;;;;;7.77;81.27;100554.44;342148;28;1178;-68
2022/11/26 00:48:02;;;;;;;14.70;8.88;;;;;;;7.77;81.28;100551.84;340883;29;1248;-68
2022/11/26 00:48:14;;;;;;;15.38;8.45;;;;;;;7.79;81.45;100555.28;339688;28;1771;-68
2022/11/26 00:48:26;;;;;;;17.80;8.27;;;;;;;7.80;81.26;100557.00;341612;28;1536;-68
2022/11/26 00:48:38;;;;;;;17.70;8.10;;;;;;;7.82;81.32;100557.84;342115;28;1048;-68
2022/11/26 00:48:51;;;;;;;17.60;8.07;;;;;;;7.83;81.08;100556.09;340766;29;1826;-68
2022/11/26 00:49:02;;;;;;;14.00;7.45;;;;;;;7.85;81.23;100555.25;340543;29;1032;-68
2022/11/26 00:49:15;;;;;;;12.13;6.95;;;;;;;7.86;81.03;100556.09;341064;28;1821;-68
2022/11/26 00:49:28;;;;;;;12.43;6.55;;;;;;;7.87;80.92;100558.69;342465;28;2318;-68
2022/11/26 00:49:40;;;;;;;14.23;6.80;;;;;;;7.88;80.98;100560.38;340661;28;1856;-68
2022/11/26 00:49:52;;;;;;;13.30;6.35;;;;;;;7.90;80.88;100557.78;341536;28;1845;-68
2022/11/26 00:50:04;;;;;;;12.07;5.82;;;;;;;7.91;80.93;100560.38;342803;28;1699;-68
2022/11/26 00:50:19;;;;;;;10.90;5.50;;;;;;;7.93;80.90;100556.06;343698;28;1796;-68
2022/11/26 00:50:41;;;;;;;11.00;5.90;;;;;;;7.95;80.78;100556.03;343513;28;1890;-68
2022/11/26 00:50:53;;;;;;;14.77;6.93;;;;;;;7.95;80.62;100556.91;344305;28;1182;-68
2022/11/26 00:51:05;;;;;;;15.50;7.43;;;;;;;7.96;80.71;100553.41;344947;28;1690;-68
2022/11/26 00:51:20;;;;;;;15.00;7.20;;;;;;;7.96;80.82;100558.59;343317;28;1451;-68
2022/11/26 00:51:32;;;;;;;12.85;7.07;;;;;;;7.97;80.52;100562.94;343112;28;2032;-68
2022/11/26 00:51:45;;;;;;;11.80;6.93;;;;;;;7.96;80.62;100558.59;342959;28;1661;-68
2022/11/26 00:51:57;;;;;;;13.20;7.20;;;;;;;7.97;80.60;100560.34;343016;28;1913;-68
2022/11/26 00:52:21;;;;;;;13.95;7.43;;;;;;;7.96;80.55;100563.78;343518;28;1153;-68
2022/11/26 00:52:33;;;;;;;14.48;7.80;;;;;;;7.96;80.58;100558.59;343303;28;1039;-68
2022/11/26 00:52:48;;;;;;;12.90;7.28;;;;;;;7.97;80.44;100562.94;343562;28;1072;-68
2022/11/26 00:53:00;;;;;;;11.65;6.57;;;;;;;7.99;80.30;100565.50;343792;28;1320;-68
2022/11/26 00:53:15;;;;;;;13.75;7.22;;;;;;;7.98;80.68;100566.38;343364;28;1189;-68
2022/11/26 00:53:27;;;;;;;14.25;7.88;;;;;;;7.97;80.40;100560.34;343423;28;1352;-68
2022/11/26 00:53:40;;;;;;;14.80;7.97;;;;;;;7.96;80.45;100568.97;343173;28;1365;-68
2022/11/26 00:53:59;;;;;;;14.60;7.97;;;;;;;7.90;80.57;100565.56;343714;28;1063;-68
2022/11/26 00:54:17;;;;;;;13.38;7.55;;;;;;;7.88;80.64;100575.91;341868;28;1663;-68
2022/11/26 00:54:29;;;;;;;14.57;7.80;;;;;;;7.89;80.75;100571.63;342564;28;872;-68
2022/11/26 00:54:41;;;;;;;14.48;7.72;;;;;;;7.85;80.95;100575.06;340951;28;2361;-70
2022/11/26 00:54:53;;;;;;;13.98;7.22;;;;;;;7.75;80.80;100571.72;342026;28;1870;-70
2022/11/26 00:55:17;;;;;;;14.30;7.32;;;;;;;7.58;81.51;100570.06;342577;28;1138;-70
2022/11/26 00:55:37;;;;;;;16.52;9.10;;;;;;;7.62;81.75;100572.63;341047;28;1747;-68
2022/11/26 00:55:49;;;;;;;21.23;11.23;;;;;;;7.67;81.94;100576.06;343488;28;1603;-68
2022/11/26 00:56:01;;;;;;;22.40;12.57;;;;;;;7.71;81.87;100575.19;343327;28;1827;-68
2022/11/26 00:56:17;;;;;;;21.77;12.57;;;;;;;7.74;81.88;100578.59;344486;28;1250;-67
2022/11/26 00:56:30;;;;;;;18.23;10.27;;;;;;;7.75;81.73;100574.31;343606;28;1140;-67
2022/11/26 00:56:49;;;;;;;16.48;8.73;;;;;;;7.76;81.63;100568.25;342221;28;1231;-68
2022/11/26 00:57:01;;;;;;;17.73;8.38;;;;;;;7.75;81.86;100579.47;342154;28;1034;-68
2022/11/26 00:57:13;;;;;;;14.48;7.43;;;;;;;7.79;81.97;100579.44;341846;28;1817;-67
2022/11/26 00:57:25;;;;;;;14.57;7.78;;;;;;;7.79;81.87;100570.81;343450;28;1290;-68
2022/11/26 00:57:37;;;;;;;18.10;11.55;;;;;;;7.82;81.81;100581.13;345253;28;778;-68
2022/11/26 00:57:49;;;;;;;23.27;14.80;;;;;;;7.83;81.86;100572.53;343804;28;1840;-68
2022/11/26 00:58:02;;;;;;;25.38;15.02;;;;;;;7.84;81.64;100579.41;342428;28;1019;-68
2022/11/26 00:58:28;;;;;;;20.27;11.77;;;;;;;7.82;81.77;100575.09;342182;28;1744;-68
2022/11/26 00:58:40;;;;;;;14.45;10.07;;;;;;;7.81;81.42;100582.03;342416;28;1027;-68
2022/11/26 00:58:53;;;;;;;16.38;10.05;;;;;;;7.81;81.64;100574.25;343130;28;1782;-67
2022/11/26 00:59:05;;;;;;;15.60;9.07;;;;;;;7.80;81.58;100582.88;343426;28;1121;-68
2022/11/26 00:59:22;;;;;;;13.25;7.97;;;;;;;7.82;81.72;100586.31;343585;28;1886;-68
2022/11/26 00:59:34;;;;;;;17.67;10.07;;;;;;;7.85;81.57;100580.25;345419;28;1446;-68
2022/11/26 00:59:46;;;;;;;22.35;14.50;;;;;;;7.85;81.74;100575.97;344083;28;1653;-68
2022/11/26 00:59:57;;;;;;;24.67;17.00;;;;;;;7.85;81.62;100581.13;344849;28;1603;-68
2022/11/26 01:00:19;;;;;;;21.75;14.35;;;;;;;7.87;81.60;100584.56;344873;28;1248;-68
2022/11/26 01:00:33;;;;;;;17.33;10.45;;;;;;;7.89;81.55;100580.25;342326;28;1037;-67
2022/11/26 01:00:45;;;;;;;17.08;9.30;;;;;;;7.90;81.63;100576.78;342545;28;943;-68
2022/11/26 01:00:58;;;;;;;17.60;9.07;;;;;;;7.90;81.33;100584.53;342123;28;1036;-68
2022/11/26 01:01:13;;;;;;;16.63;8.70;;;;;;;7.94;81.54;100580.19;343266;28;1251;-68
2022/11/26 01:01:28;;;;;;;15.30;7.85;;;;;;;7.96;81.33;100583.63;342597;28;1531;-68
2022/11/26 01:01:41;;;;;;;12.73;7.03;;;;;;;7.99;81.34;100578.44;341163;29;1152;-68
2022/11/26 01:01:52;;;;;;;12.20;6.82;;;;;;;7.99;81.25;100581.91;340924;28;1854;-68
2022/11/26 01:02:05;;;;;;;13.23;7.15;;;;;;;8.01;81.30;100584.47;342406;28;1302;-67
2022/11/26 01:02:17;;;;;;;14.30;7.50;;;;;;;8.04;81.25;100581.00;342395;28;1404;-68
2022/11/26 01:02:28;;;;;;;11.73;7.13;;;;;;;8.05;81.03;100577.53;343485;28;1115;-67
2022/11/26 01:02:41;;;;;;;11.75;7.20;;;;;;;8.03;81.24;100580.16;343316;28;1238;-69
2022/11/26 01:02:54;;;;;;;12.52;7.13;;;;;;;8.01;81.06;100581.88;342775;28;1833;-70
2022/11/26 01:03:06;;;;;;;12.02;6.45;;;;;;;8.03;81.04;100581.84;343349;28;1720;-70
2022/11/26 01:03:18;;;;;;;12.57;6.10;;;;;;;8.03;81.06;100580.16;344842;28;1323;-70
2022/11/26 01:03:30;;;;;;;11.98;5.85;;;;;;;8.03;81.41;100581.84;343345;28;2210;-68
2022/11/26 01:03:42;;;;;;;12.48;6.40;;;;;;;8.01;80.94;100584.47;344665;28;1903;-68
2022/11/26 01:03:54;;;;;;;12.38;6.43;;;;;;;8.02;81.27;100577.56;344258;28;1798;-68
2022/11/26 01:04:06;;;;;;;13.63;6.30;;;;;;;8.04;80.96;100575.81;345173;28;1854;-68
2022/11/26 01:04:18;;;;;;;14.43;5.93;;;;;;;8.05;81.02;100587.88;344579;28;1952;-68
2022/11/26 01:04:30;;;;;;;13.68;5.75;;;;;;;8.04;81.09;100581.84;345625;28;1613;-68
2022/11/26 01:04:42;;;;;;;12.25;5.32;;;;;;;7.97;80.98;100581.03;344629;28;1279;-68
2022/11/26 01:04:54;;;;;;;10.70;5.25;;;;;;;7.94;81.35;100596.59;345037;28;1157;-68
2022/11/26 01:05:07;;;;;;;10.65;5.45;;;;;;;7.95;81.22;100582.78;344702;28;1645;-68
2022/11/26 01:05:20;;;;;;;12.13;5.20;;;;;;;7.92;81.35;100579.34;344813;28;1262;-68
2022/11/26 01:05:32;;;;;;;11.55;5.18;;;;;;;7.88;81.48;100582.84;344850;28;1116;-68
2022/11/26 01:05:48;;;;;;;15.55;5.90;;;;;;;7.83;81.80;100595.81;344906;28;1486;-68
2022/11/26 01:06:00;;;;;;;16.33;5.90;;;;;;;7.87;82.08;100587.16;344191;28;1216;-68
2022/11/26 01:06:24;;;;;;;14.98;7.32;;;;;;;7.90;82.01;100589.72;345072;28;1114;-68
2022/11/26 01:06:40;;;;;;;12.57;7.05;;;;;;;7.92;82.07;100590.56;344992;28;1191;-68
2022/11/26 01:06:52;;;;;;;10.35;5.07;;;;;;;7.94;81.96;100580.19;343432;28;1981;-70
2022/11/26 01:07:04;;;;;;;12.18;4.93;;;;;;;7.93;81.98;100592.28;343520;28;1270;-70
2022/11/26 01:07:16;;;;;;;12.45;5.00;;;;;;;7.88;82.16;100594.03;342534;28;1294;-70
2022/11/26 01:07:29;;;;;;;11.27;5.33;;;;;;;7.86;81.95;100588.00;341994;28;1636;-70
2022/11/26 01:07:42;;;;;;;11.82;5.68;;;;;;;7.91;82.06;100593.19;340859;28;1651;-68
2022/11/26 01:07:57;;;;;;;12.90;5.93;;;;;;;7.93;82.09;100594.88;342096;28;1782;-68
2022/11/26 01:08:29;;;;;;;12.68;5.55;;;;;;;7.96;81.85;100588.81;341989;28;1076;-68